Time;durP1;ratioP1;P1;durP2;ratioP2;P2;SDS_P1;SDS_P2;PMS_P1;PMS_P2;Temp;Humidity;BMP_temperature;BMP_pressure;BME280_temperature;BME280_humidity;BME280_pressure;Samples;Min_cycle;Max_cycle;Signal;HPM_P1;HPM_P2
2021/03/17 00:00:58;;;;;;;0.00;0.00;;;4.80;99.90;;;;;;6156070;23;20750;-66
2021/03/17 00:03:25;;;;;;;0.00;0.00;;;4.80;99.90;;;;;;6155336;23;20379;-67
2021/03/17 00:05:52;;;;;;;0.00;0.00;;;4.80;99.90;;;;;;6157360;23;20387;-66
2021/03/17 00:08:19;;;;;;;0.00;0.00;;;4.80;99.90;;;;;;6158748;23;20438;-66
2021/03/17 00:10:49;;;;;;;0.00;0.00;;;4.80;99.90;;;;;;6159246;23;20754;-66
2021/03/17 00:13:16;;;;;;;0.00;0.00;;;4.80;99.90;;;;;;6155608;23;20897;-66
2021/03/17 00:15:43;;;;;;;0.00;0.00;;;4.80;99.90;;;;;;6153706;23;20458;-66
2021/03/17 00:18:11;;;;;;;0.00;0.00;;;4.90;99.90;;;;;;6153190;23;20387;-66
2021/03/17 00:20:38;;;;;;;0.00;0.00;;;4.80;99.90;;;;;;6153246;23;20375;-66
2021/03/17 00:23:04;;;;;;;0.00;0.00;;;4.70;99.90;;;;;;6153511;23;20378;-66
2021/03/17 00:25:32;;;;;;;0.00;0.00;;;4.70;99.90;;;;;;6153501;23;20383;-66
2021/03/17 00:28:01;;;;;;;0.00;0.00;;;4.80;99.90;;;;;;6153652;23;20714;-66
2021/03/17 00:30:28;;;;;;;0.00;0.00;;;4.80;99.90;;;;;;6152775;23;20379;-66
2021/03/17 00:32:55;;;;;;;0.00;0.00;;;4.80;99.90;;;;;;6153632;23;20457;-66
2021/03/17 00:35:22;;;;;;;0.00;0.00;;;4.70;99.90;;;;;;6152971;23;20846;-67
2021/03/17 00:37:48;;;;;;;0.00;0.00;;;4.70;99.90;;;;;;6153635;23;20441;-67
2021/03/17 00:40:15;;;;;;;0.00;0.00;;;4.60;99.90;;;;;;6152839;23;20738;-66
2021/03/17 00:42:41;;;;;;;0.00;0.00;;;4.60;99.90;;;;;;6153615;23;20379;-66
2021/03/17 00:45:09;;;;;;;0.00;0.00;;;4.60;99.90;;;;;;6153406;23;20379;-67
2021/03/17 00:47:37;;;;;;;0.00;0.00;;;4.60;99.90;;;;;;6153351;23;20379;-66
2021/03/17 00:50:04;;;;;;;0.00;0.00;;;4.60;99.90;;;;;;6152709;23;20375;-66
2021/03/17 00:52:30;;;;;;;0.00;0.00;;;4.60;99.90;;;;;;6153063;23;20441;-66
2021/03/17 00:54:56;;;;;;;0.00;0.00;;;4.60;99.90;;;;;;6153186;23;20859;-66
2021/03/17 00:57:23;;;;;;;0.00;0.00;;;4.60;99.90;;;;;;6153360;23;20379;-65
2021/03/17 00:59:49;;;;;;;0.00;0.00;;;4.60;99.90;;;;;;6154202;23;20877;-66
2021/03/17 01:02:16;;;;;;;0.00;0.00;;;4.60;99.90;;;;;;6155758;23;20858;-65
2021/03/17 01:04:42;;;;;;;0.00;0.00;;;4.60;99.90;;;;;;6156597;23;20378;-66
2021/03/17 01:07:12;;;;;;;0.00;0.00;;;4.50;99.90;;;;;;6156887;23;20379;-65
2021/03/17 01:09:38;;;;;;;0.00;0.00;;;4.50;99.90;;;;;;6156572;23;20454;-66
2021/03/17 01:12:05;;;;;;;0.00;0.00;;;4.60;99.90;;;;;;6155956;23;20714;-65
2021/03/17 01:14:31;;;;;;;0.00;0.00;;;4.50;99.90;;;;;;6156595;23;20382;-65
2021/03/17 01:16:58;;;;;;;0.00;0.00;;;4.50;99.90;;;;;;6156814;23;20395;-65
2021/03/17 01:19:25;;;;;;;0.00;0.00;;;4.60;99.90;;;;;;6156550;23;20375;-67
2021/03/17 01:21:51;;;;;;;0.00;0.00;;;4.60;99.90;;;;;;6156317;23;20382;-65
2021/03/17 01:24:17;;;;;;;0.00;0.00;;;4.60;99.90;;;;;;6156239;23;20728;-65
2021/03/17 01:26:43;;;;;;;0.00;0.00;;;4.60;99.90;;;;;;6156758;23;20398;-65
2021/03/17 01:29:09;;;;;;;0.00;0.00;;;4.70;99.90;;;;;;6156773;23;20445;-66
2021/03/17 01:31:35;;;;;;;0.00;0.00;;;4.70;99.90;;;;;;6156060;23;20381;-65
2021/03/17 01:34:02;;;;;;;0.00;0.00;;;4.70;99.90;;;;;;6156461;23;20409;-65
2021/03/17 01:36:29;;;;;;;0.00;0.00;;;4.80;99.90;;;;;;6156692;23;20378;-65
2021/03/17 01:38:55;;;;;;;0.00;0.00;;;4.80;99.90;;;;;;6156865;23;20382;-66
2021/03/17 01:41:21;;;;;;;0.00;0.00;;;4.80;99.90;;;;;;6156081;23;20383;-65
2021/03/17 01:43:47;;;;;;;0.00;0.00;;;4.80;99.90;;;;;;6156711;23;20390;-65
2021/03/17 01:46:14;;;;;;;0.00;0.00;;;4.70;99.90;;;;;;6156395;23;20367;-65
2021/03/17 01:48:40;;;;;;;0.00;0.00;;;4.70;99.90;;;;;;6156500;23;20580;-65
2021/03/17 01:51:06;;;;;;;0.00;0.00;;;4.70;99.90;;;;;;6155956;23;20379;-64
2021/03/17 01:53:35;;;;;;;0.00;0.00;;;4.60;99.90;;;;;;6156119;23;20395;-65
2021/03/17 01:56:02;;;;;;;0.00;0.00;;;4.70;99.90;;;;;;6156385;23;20379;-65
2021/03/17 01:58:30;;;;;;;0.00;0.00;;;4.70;99.90;;;;;;6156586;23;20642;-65
2021/03/17 02:00:57;;;;;;;0.00;0.00;;;4.60;99.90;;;;;;6156078;23;20378;-65
2021/03/17 02:03:24;;;;;;;0.00;0.00;;;4.60;99.90;;;;;;6156247;23;20858;-66
2021/03/17 02:05:51;;;;;;;0.00;0.00;;;4.60;99.90;;;;;;6156419;23;20385;-65
2021/03/17 02:08:20;;;;;;;0.00;0.00;;;4.60;99.90;;;;;;6156287;23;20418;-66
2021/03/17 02:10:47;;;;;;;0.00;0.00;;;4.40;99.90;;;;;;6155213;23;20378;-66
2021/03/17 02:13:44;;;;;;;0.00;0.00;;;4.50;99.90;;;;;;6154901;23;20391;-66
2021/03/17 02:16:16;;;;;;;0.00;0.00;;;4.40;99.90;;;;;;6138927;23;20455;-65
2021/03/17 02:18:54;;;;;;;0.00;0.00;;;4.40;99.90;;;;;;6154506;23;20853;-66
2021/03/17 02:21:54;;;;;;;0.00;0.00;;;4.40;99.90;;;;;;6156344;23;20379;-65
2021/03/17 02:24:26;;;;;;;0.00;0.00;;;4.40;99.90;;;;;;6156543;23;20842;-66
2021/03/17 02:27:27;;;;;;;0.00;0.00;;;4.40;99.90;;;;;;6155550;23;20383;-66
2021/03/17 02:30:38;;;;;;;0.00;0.00;;;4.40;99.90;;;;;;6154931;23;20371;-65
2021/03/17 02:33:35;;;;;;;0.00;0.00;;;4.40;1.00;;;;;;6045113;23;20431;-66
2021/03/17 02:36:06;;;;;;;0.00;0.00;;;4.50;1.00;;;;;;6154443;23;20375;-67
2021/03/17 02:38:34;;;;;;;0.00;0.00;;;4.40;1.00;;;;;;6154500;23;20433;-65
2021/03/17 02:41:02;;;;;;;0.00;0.00;;;4.40;1.00;;;;;;6154047;23;20381;-66
2021/03/17 02:43:31;;;;;;;0.00;0.00;;;4.40;1.00;;;;;;6154391;23;20375;-66
2021/03/17 02:46:03;;;;;;;0.00;0.00;;;4.30;1.00;;;;;;6154522;23;20379;-65
2021/03/17 02:48:33;;;;;;;0.00;0.00;;;4.40;1.00;;;;;;6153934;23;20866;-65
2021/03/17 02:51:02;;;;;;;0.00;0.00;;;4.40;1.00;;;;;;6154087;23;20437;-65
2021/03/17 02:53:32;;;;;;;0.00;0.00;;;4.40;1.00;;;;;;6154298;23;20387;-65
2021/03/17 02:56:03;;;;;;;0.00;0.00;;;4.40;1.00;;;;;;6154253;23;20367;-65
2021/03/17 02:58:30;;;;;;;0.00;0.00;;;4.30;1.00;;;;;;6154090;23;20386;-65
2021/03/17 03:00:58;;;;;;;0.00;0.00;;;4.30;1.00;;;;;;6154062;23;20386;-66
2021/03/17 03:03:26;;;;;;;0.00;0.00;;;4.20;1.00;;;;;;6154063;23;20382;-65
2021/03/17 03:05:55;;;;;;;0.00;0.00;;;4.10;1.00;;;;;;6154634;23;20374;-65
2021/03/17 03:08:23;;;;;;;0.00;0.00;;;4.10;1.00;;;;;;6155718;23;20390;-65
2021/03/17 03:10:50;;;;;;;0.00;0.00;;;4.10;1.00;;;;;;6157097;23;20386;-65
2021/03/17 03:13:18;;;;;;;0.00;0.00;;;4.10;1.00;;;;;;6154527;23;20774;-65
2021/03/17 03:15:44;;;;;;;0.00;0.00;;;4.00;1.00;;;;;;6154548;23;20866;-66
2021/03/17 03:18:12;;;;;;;0.00;0.00;;;3.90;1.00;;;;;;6154718;23;20371;-66
2021/03/17 03:20:39;;;;;;;0.00;0.00;;;3.90;1.00;;;;;;6153443;23;20378;-66
2021/03/17 03:23:07;;;;;;;0.00;0.00;;;4.00;1.00;;;;;;6154270;23;20374;-66
2021/03/17 03:25:34;;;;;;;0.00;0.00;;;4.00;1.00;;;;;;6153532;23;20390;-65
2021/03/17 03:28:11;;;;;;;0.00;0.00;;;4.00;1.00;;;;;;6153862;23;20386;-65
2021/03/17 03:30:42;;;;;;;0.00;0.00;;;4.00;1.00;;;;;;6153957;23;20379;-66
2021/03/17 03:33:09;;;;;;;0.00;0.00;;;4.00;1.00;;;;;;6153493;23;20869;-66
2021/03/17 03:35:35;;;;;;;0.00;0.00;;;4.10;1.00;;;;;;6154102;23;20437;-65
2021/03/17 03:38:05;;;;;;;0.00;0.00;;;3.90;1.00;;;;;;6153816;23;20425;-66
2021/03/17 03:40:32;;;;;;;0.00;0.00;;;4.00;1.00;;;;;;6153658;23;20382;-65
2021/03/17 03:42:59;;;;;;;0.00;0.00;;;4.00;1.00;;;;;;6153742;23;20371;-66
2021/03/17 03:45:25;;;;;;;0.00;0.00;;;4.10;1.00;;;;;;6153993;23;20379;-66
2021/03/17 03:47:51;;;;;;;0.00;0.00;;;4.10;1.00;;;;;;6153734;23;20429;-66
2021/03/17 03:50:21;;;;;;;0.00;0.00;;;4.10;1.00;;;;;;6153420;23;20710;-65
2021/03/17 03:52:55;;;;;;;0.00;0.00;;;4.00;1.00;;;;;;6153813;23;20437;-66
2021/03/17 03:55:25;;;;;;;0.00;0.00;;;4.00;1.00;;;;;;6153907;23;20375;-65
2021/03/17 03:57:53;;;;;;;0.00;0.00;;;4.10;1.00;;;;;;6154047;23;20711;-65
2021/03/17 04:00:22;;;;;;;0.00;0.00;;;4.00;1.00;;;;;;6153060;23;20390;-65
2021/03/17 04:02:50;;;;;;;0.00;0.00;;;4.00;1.00;;;;;;6153220;23;20854;-66
2021/03/17 04:05:20;;;;;;;0.00;0.00;;;4.00;1.00;;;;;;6153523;23;20381;-66
2021/03/17 04:07:48;;;;;;;0.00;0.00;;;4.00;1.00;;;;;;6153896;23;20381;-65
2021/03/17 04:10:16;;;;;;;0.00;0.00;;;4.00;1.00;;;;;;6153479;23;20446;-65
2021/03/17 04:12:44;;;;;;;0.00;0.00;;;4.00;1.00;;;;;;6153615;23;20415;-66
2021/03/17 04:15:15;;;;;;;0.00;0.00;;;4.00;1.00;;;;;;6153270;23;20371;-66
2021/03/17 04:17:48;;;;;;;0.00;0.00;;;4.10;1.00;;;;;;6153850;23;20387;-65
2021/03/17 04:20:20;;;;;;;0.00;0.00;;;4.10;1.00;;;;;;6153759;23;20375;-66
2021/03/17 04:22:48;;;;;;;0.00;0.00;;;4.00;1.00;;;;;;6153275;23;20429;-65
2021/03/17 04:25:16;;;;;;;0.00;0.00;;;4.00;1.00;;;;;;6153518;23;20398;-67
2021/03/17 04:27:45;;;;;;;0.00;0.00;;;3.90;1.00;;;;;;6153047;23;20381;-67
2021/03/17 04:30:15;;;;;;;0.00;0.00;;;3.90;1.00;;;;;;6153440;23;20379;-66
2021/03/17 04:32:44;;;;;;;0.00;0.00;;;3.80;1.00;;;;;;6152619;23;20931;-66
2021/03/17 04:35:12;;;;;;;0.00;0.00;;;3.90;1.00;;;;;;6152929;23;20378;-66
2021/03/17 04:37:40;;;;;;;0.00;0.00;;;3.90;1.00;;;;;;6153491;23;20379;-66
2021/03/17 04:40:08;;;;;;;0.00;0.00;;;3.90;1.00;;;;;;6153077;23;20375;-66
2021/03/17 04:42:34;;;;;;;0.00;0.00;;;3.90;1.00;;;;;;6152827;23;20378;-67
2021/03/17 04:45:02;;;;;;;0.00;0.00;;;3.90;1.00;;;;;;6153598;23;20383;-66
2021/03/17 04:47:31;;;;;;;0.00;0.00;;;3.90;1.00;;;;;;6153491;23;20707;-66
2021/03/17 04:49:58;;;;;;;0.00;0.00;;;4.00;1.00;;;;;;6153095;23;20379;-66
2021/03/17 04:52:26;;;;;;;0.00;0.00;;;4.00;1.00;;;;;;6153069;23;20379;-67
2021/03/17 04:54:53;;;;;;;0.00;0.00;;;4.10;1.00;;;;;;6152779;23;20957;-67
2021/03/17 04:57:23;;;;;;;0.00;0.00;;;4.10;1.00;;;;;;6153359;23;20454;-67
2021/03/17 04:59:51;;;;;;;0.00;0.00;;;4.10;1.00;;;;;;6153183;23;20375;-66
2021/03/17 05:02:21;;;;;;;0.00;0.00;;;4.00;1.00;;;;;;6153126;23;20382;-67
2021/03/17 05:04:48;;;;;;;0.00;0.00;;;4.00;1.00;;;;;;6153126;23;20379;-67
2021/03/17 05:07:15;;;;;;;0.00;0.00;;;3.90;1.00;;;;;;6153401;23;20385;-67
2021/03/17 05:09:42;;;;;;;0.00;0.00;;;4.00;1.00;;;;;;6152904;23;20449;-67
2021/03/17 05:12:09;;;;;;;0.00;0.00;;;4.10;1.00;;;;;;6152751;23;20406;-67
2021/03/17 05:14:37;;;;;;;0.00;0.00;;;4.10;1.00;;;;;;6150383;23;20398;-67
2021/03/17 05:17:04;;;;;;;0.00;0.00;;;4.00;1.00;;;;;;6153290;23;20375;-66
2021/03/17 05:19:32;;;;;;;0.00;0.00;;;4.00;1.00;;;;;;6153609;23;20375;-67
2021/03/17 05:22:01;;;;;;;0.00;0.00;;;4.00;1.00;;;;;;6152291;23;20389;-67
2021/03/17 05:24:28;;;;;;;0.00;0.00;;;4.00;1.00;;;;;;6152860;23;20889;-67
2021/03/17 05:26:56;;;;;;;0.00;0.00;;;4.00;1.00;;;;;;6152887;23;20379;-67
2021/03/17 05:29:24;;;;;;;0.00;0.00;;;4.00;1.00;;;;;;6152964;23;20379;-68
2021/03/17 05:31:52;;;;;;;0.00;0.00;;;4.00;1.00;;;;;;6152440;23;20850;-66
2021/03/17 05:34:18;;;;;;;0.00;0.00;;;4.00;1.00;;;;;;6152416;23;20872;-67
2021/03/17 05:36:46;;;;;;;0.00;0.00;;;4.00;1.00;;;;;;6153351;23;20386;-67
2021/03/17 05:39:13;;;;;;;0.00;0.00;;;3.90;1.00;;;;;;6153522;23;20734;-67
2021/03/17 05:41:40;;;;;;;0.00;0.00;;;4.00;1.00;;;;;;6152304;23;20386;-67
2021/03/17 05:44:06;;;;;;;0.00;0.00;;;4.00;1.00;;;;;;6152610;23;20379;-67
2021/03/17 05:46:34;;;;;;;0.00;0.00;;;4.00;1.00;;;;;;6152932;23;20891;-68
2021/03/17 05:49:01;;;;;;;0.00;0.00;;;4.00;1.00;;;;;;6154894;23;20382;-67
2021/03/17 05:51:27;;;;;;;0.00;0.00;;;4.10;1.00;;;;;;6154484;23;20379;-68
2021/03/17 05:53:54;;;;;;;0.00;0.00;;;4.10;1.00;;;;;;6154775;23;20710;-67
2021/03/17 05:56:21;;;;;;;0.00;0.00;;;4.00;1.00;;;;;;6154169;23;20374;-67
2021/03/17 05:58:47;;;;;;;0.00;0.00;;;4.00;1.00;;;;;;6154843;23;20375;-68
2021/03/17 06:01:15;;;;;;;0.00;0.00;;;4.00;1.00;;;;;;6154156;23;20459;-68
2021/03/17 06:03:41;;;;;;;0.00;0.00;;;4.00;1.00;;;;;;6154910;23;20382;-68
2021/03/17 06:06:08;;;;;;;0.00;0.00;;;4.00;1.00;;;;;;6154906;23;20402;-67
2021/03/17 06:08:38;;;;;;;0.00;0.00;;;4.00;1.00;;;;;;6155764;23;20379;-67
2021/03/17 06:11:07;;;;;;;0.00;0.00;;;4.00;1.00;;;;;;6157173;23;20410;-67
2021/03/17 06:13:38;;;;;;;0.00;0.00;;;4.10;1.00;;;;;;6155543;23;20747;-67
2021/03/17 06:16:09;;;;;;;0.00;0.00;;;4.10;1.00;;;;;;6154610;23;21254;-67
2021/03/17 06:18:40;;;;;;;0.00;0.00;;;4.00;1.00;;;;;;6154964;23;20379;-67
2021/03/17 06:21:07;;;;;;;0.00;0.00;;;4.10;1.00;;;;;;6154466;23;20379;-66
2021/03/17 06:23:33;;;;;;;0.00;0.00;;;3.90;1.00;;;;;;6153593;23;20862;-66
2021/03/17 06:26:00;;;;;;;0.00;0.00;;;4.00;1.00;;;;;;6154149;23;20379;-66
2021/03/17 06:28:27;;;;;;;0.00;0.00;;;3.80;1.00;;;;;;6154820;23;20382;-66
2021/03/17 06:30:54;;;;;;;0.00;0.00;;;3.60;1.00;;;;;;6154724;23;20375;-66
2021/03/17 06:33:20;;;;;;;0.00;0.00;;;3.50;99.90;;;;;;6155050;23;20391;-66
2021/03/17 06:35:47;;;;;;;0.00;0.00;;;3.20;99.90;;;;;;6154642;23;20385;-66
2021/03/17 06:38:20;;;;;;;0.00;0.00;;;3.10;99.90;;;;;;6154522;23;20430;-66
2021/03/17 06:40:56;;;;;;;0.00;0.00;;;3.00;99.90;;;;;;6153698;23;20834;-66
2021/03/17 06:43:22;;;;;;;0.00;0.00;;;3.00;99.90;;;;;;6154333;23;20410;-67
2021/03/17 06:45:48;;;;;;;0.00;0.00;;;3.10;99.90;;;;;;6154506;23;20383;-66
2021/03/17 06:48:21;;;;;;;0.00;0.00;;;3.00;99.90;;;;;;6153881;23;20433;-66
2021/03/17 06:51:00;;;;;;;0.00;0.00;;;3.00;99.90;;;;;;6153702;23;20379;-66
2021/03/17 06:53:39;;;;;;;0.00;0.00;;;2.90;99.90;;;;;;6154332;23;20751;-67
2021/03/17 06:56:19;;;;;;;0.00;0.00;;;2.90;99.90;;;;;;6154255;23;20390;-67
2021/03/17 06:58:48;;;;;;;0.00;0.00;;;3.10;1.00;;;;;;6153992;23;20387;-66
2021/03/17 07:01:35;;;;;;;0.00;0.00;;;3.30;1.00;;;;;;6153878;23;20382;-67
2021/03/17 07:04:04;;;;;;;0.00;0.00;;;3.40;1.00;;;;;;6154860;23;20375;-66
2021/03/17 07:06:31;;;;;;;0.00;0.00;;;3.50;1.00;;;;;;6154308;23;20374;-66
2021/03/17 07:08:58;;;;;;;0.00;0.00;;;3.60;1.00;;;;;;6154323;23;20433;-67
2021/03/17 07:11:29;;;;;;;0.00;0.00;;;3.70;1.00;;;;;;6153603;23;20379;-66
2021/03/17 07:13:57;;;;;;;0.00;0.00;;;3.80;99.90;;;;;;6153987;23;20398;-67
2021/03/17 07:16:36;;;;;;;0.00;0.00;;;3.80;99.90;;;;;;6154180;23;20858;-66
2021/03/17 07:19:05;;;;;;;0.00;0.00;;;4.00;99.90;;;;;;6154876;23;20379;-66
2021/03/17 07:21:34;;;;;;;0.00;0.00;;;4.10;99.90;;;;;;6154089;23;20446;-66
2021/03/17 07:24:01;;;;;;;0.00;0.00;;;4.20;99.90;;;;;;6155056;23;20371;-66
2021/03/17 07:26:28;;;;;;;0.00;0.00;;;4.40;99.90;;;;;;6154361;23;20703;-67
2021/03/17 07:29:13;;;;;;;0.00;0.00;;;4.40;99.90;;;;;;6154482;23;20375;-66
2021/03/17 07:31:44;;;;;;;0.00;0.00;;;4.30;99.90;;;;;;6153443;23;20379;-67
2021/03/17 07:34:20;;;;;;;0.00;0.00;;;4.30;99.90;;;;;;6154161;23;20445;-66
2021/03/17 07:36:49;;;;;;;0.00;0.00;;;4.20;99.90;;;;;;6153979;23;20394;-67
2021/03/17 07:39:19;;;;;;;0.00;0.00;;;4.20;99.90;;;;;;6153899;23;20374;-67
2021/03/17 07:41:46;;;;;;;0.00;0.00;;;4.20;99.90;;;;;;6153579;23;20406;-67
2021/03/17 07:44:14;;;;;;;0.00;0.00;;;4.30;99.90;;;;;;6153913;23;20382;-67
2021/03/17 07:46:43;;;;;;;0.00;0.00;;;4.20;99.90;;;;;;6154022;23;20376;-67
2021/03/17 07:49:10;;;;;;;0.00;0.00;;;4.40;99.90;;;;;;6153829;23;20431;-67
2021/03/17 07:51:46;;;;;;;0.00;0.00;;;4.50;99.90;;;;;;6153912;23;20411;-66
2021/03/17 07:54:19;;;;;;;0.00;0.00;;;4.70;99.90;;;;;;6153702;23;20394;-67
2021/03/17 07:56:48;;;;;;;0.00;0.00;;;4.90;99.90;;;;;;6153302;23;20383;-66
2021/03/17 07:59:15;;;;;;;0.00;0.00;;;4.90;99.90;;;;;;6153364;23;20873;-67
2021/03/17 08:01:42;;;;;;;0.00;0.00;;;4.90;99.90;;;;;;6153136;23;20374;-67
2021/03/17 08:04:08;;;;;;;0.00;0.00;;;4.80;99.90;;;;;;6153965;23;20371;-67
2021/03/17 08:06:35;;;;;;;0.00;0.00;;;4.80;99.90;;;;;;6153670;23;20375;-65
2021/03/17 08:09:03;;;;;;;0.00;0.00;;;4.70;99.90;;;;;;6153051;23;20375;-66
2021/03/17 08:11:30;;;;;;;0.00;0.00;;;4.80;99.90;;;;;;6153131;23;20383;-66
2021/03/17 08:13:57;;;;;;;0.00;0.00;;;4.80;99.90;;;;;;6153093;23;20391;-67
2021/03/17 08:16:27;;;;;;;0.00;0.00;;;4.80;99.90;;;;;;6153906;23;20386;-66
2021/03/17 08:18:54;;;;;;;0.00;0.00;;;4.80;99.90;;;;;;6153683;23;20386;-66
2021/03/17 08:21:44;;;;;;;0.00;0.00;;;4.50;99.90;;;;;;6153213;23;20383;-66
2021/03/17 08:24:35;;;;;;;0.00;0.00;;;4.50;99.90;;;;;;6154963;23;20392;-66
2021/03/17 08:27:13;;;;;;;0.00;0.00;;;4.40;99.90;;;;;;6154015;23;20949;-65
2021/03/17 08:29:41;;;;;;;0.00;0.00;;;4.50;99.90;;;;;;6153250;23;20731;-65
2021/03/17 08:32:08;;;;;;;0.00;0.00;;;4.30;99.90;;;;;;6153686;23;20866;-65
2021/03/17 08:34:35;;;;;;;0.00;0.00;;;4.30;99.90;;;;;;6153369;23;20387;-65
2021/03/17 08:37:04;;;;;;;0.00;0.00;;;4.40;99.90;;;;;;6153131;23;20398;-65
2021/03/17 08:39:47;;;;;;;0.00;0.00;;;4.50;99.90;;;;;;6152849;23;20387;-66
2021/03/17 08:42:30;;;;;;;0.00;0.00;;;4.30;99.90;;;;;;6150610;23;20387;-65
2021/03/17 08:44:58;;;;;;;0.00;0.00;;;4.40;99.90;;;;;;6153547;23;20379;-66
2021/03/17 08:47:29;;;;;;;0.00;0.00;;;4.50;99.90;;;;;;6152754;23;20390;-66
2021/03/17 08:49:57;;;;;;;0.00;0.00;;;4.40;99.90;;;;;;6152934;23;20457;-67
2021/03/17 08:52:25;;;;;;;0.00;0.00;;;4.30;99.90;;;;;;6152916;23;20375;-66
2021/03/17 08:55:00;;;;;;;0.00;0.00;;;4.20;99.90;;;;;;6154437;23;20403;-66
2021/03/17 08:57:53;;;;;;;0.00;0.00;;;4.20;99.90;;;;;;6153303;23;20447;-66
2021/03/17 09:00:58;;;;;;;0.00;0.00;;;4.40;99.90;;;;;;6153234;23;20379;-67
2021/03/17 09:03:43;;;;;;;0.00;0.00;;;4.30;99.90;;;;;;6153059;23;20374;-67
2021/03/17 09:06:12;;;;;;;0.00;0.00;;;4.20;99.90;;;;;;6153609;23;20383;-66
2021/03/17 09:08:46;;;;;;;0.00;0.00;;;4.10;99.90;;;;;;6153314;23;20379;-66
2021/03/17 09:11:51;;;;;;;0.00;0.00;;;4.20;99.90;;;;;;6152682;23;20375;-65
2021/03/17 09:14:30;;;;;;;0.00;0.00;;;4.40;99.90;;;;;;6152938;23;20426;-65
2021/03/17 09:17:27;;;;;;;0.00;0.00;;;4.50;99.90;;;;;;6153521;23;20440;-66
2021/03/17 09:20:10;;;;;;;0.00;0.00;;;4.60;99.90;;;;;;6153815;23;20680;-66
2021/03/17 09:22:49;;;;;;;0.00;0.00;;;4.50;99.90;;;;;;6153025;23;20391;-66
2021/03/17 09:25:22;;;;;;;0.00;0.00;;;4.70;99.90;;;;;;6155272;23;20388;-66
2021/03/17 09:27:52;;;;;;;0.00;0.00;;;4.80;99.90;;;;;;6155251;23;20387;-67
2021/03/17 09:30:20;;;;;;;0.00;0.00;;;4.90;99.90;;;;;;6155155;23;20379;-65
2021/03/17 09:32:47;;;;;;;0.00;0.00;;;5.00;99.90;;;;;;6154897;23;20390;-66
2021/03/17 09:35:15;;;;;;;0.00;0.00;;;5.10;99.90;;;;;;6155084;23;20395;-66
2021/03/17 09:37:42;;;;;;;0.00;0.00;;;5.00;99.90;;;;;;6155448;23;20379;-66
2021/03/17 09:40:12;;;;;;;0.00;0.00;;;5.10;99.90;;;;;;6154936;23;20378;-66
2021/03/17 09:42:39;;;;;;;0.00;0.00;;;4.90;99.90;;;;;;6154912;23;20688;-66
2021/03/17 09:45:10;;;;;;;0.00;0.00;;;4.90;99.90;;;;;;6154710;23;20375;-67
2021/03/17 09:47:36;;;;;;;0.00;0.00;;;4.90;99.90;;;;;;6155149;23;20383;-67
2021/03/17 09:50:13;;;;;;;0.00;0.00;;;5.10;99.90;;;;;;6154924;23;20378;-67
2021/03/17 09:52:43;;;;;;;0.00;0.00;;;5.10;99.90;;;;;;6154568;23;20406;-66
2021/03/17 09:55:26;;;;;;;0.00;0.00;;;5.20;99.90;;;;;;6154584;23;20391;-67
2021/03/17 09:58:01;;;;;;;0.00;0.00;;;5.20;99.90;;;;;;6155190;23;20383;-66
2021/03/17 10:00:28;;;;;;;0.00;0.00;;;5.10;99.90;;;;;;6154724;23;20718;-66
2021/03/17 10:02:58;;;;;;;0.00;0.00;;;5.20;99.90;;;;;;6154230;23;20929;-66
2021/03/17 10:05:24;;;;;;;0.00;0.00;;;5.20;99.90;;;;;;6155519;23;20378;-67
2021/03/17 10:07:51;;;;;;;0.00;0.00;;;5.30;99.90;;;;;;6155665;23;20437;-66
2021/03/17 10:10:17;;;;;;;0.00;0.00;;;5.40;99.90;;;;;;6154843;23;20770;-66
2021/03/17 10:12:43;;;;;;;0.00;0.00;;;5.60;99.90;;;;;;6154170;23;20429;-67
2021/03/17 10:15:12;;;;;;;0.00;0.00;;;5.60;99.90;;;;;;6155267;23;20422;-65
2021/03/17 10:17:39;;;;;;;0.00;0.00;;;5.40;99.90;;;;;;6156092;23;20702;-66
2021/03/17 10:20:08;;;;;;;0.00;0.00;;;5.60;99.90;;;;;;6156022;23;20390;-66
2021/03/17 10:22:35;;;;;;;0.00;0.00;;;5.60;99.90;;;;;;6154906;23;20442;-66
2021/03/17 10:25:07;;;;;;;0.00;0.00;;;5.70;99.90;;;;;;6155244;23;20371;-65
2021/03/17 10:27:37;;;;;;;0.00;0.00;;;5.70;99.90;;;;;;6155657;23;20431;-66
2021/03/17 10:30:06;;;;;;;0.00;0.00;;;5.70;99.90;;;;;;6156052;23;20395;-66
2021/03/17 10:32:36;;;;;;;0.00;0.00;;;5.70;99.90;;;;;;6154176;23;20937;-66
2021/03/17 10:35:06;;;;;;;0.00;0.00;;;5.80;99.90;;;;;;6154906;23;20428;-66
2021/03/17 10:37:32;;;;;;;0.00;0.00;;;5.90;99.90;;;;;;6154738;23;20405;-66
2021/03/17 10:40:06;;;;;;;0.00;0.00;;;5.80;99.90;;;;;;6154290;23;20849;-66
2021/03/17 10:42:32;;;;;;;0.00;0.00;;;5.40;99.90;;;;;;6154021;23;21022;-66
2021/03/17 10:45:06;;;;;;;0.00;0.00;;;5.60;99.90;;;;;;6154739;23;20378;-65
2021/03/17 10:47:33;;;;;;;0.00;0.00;;;5.70;99.90;;;;;;6155984;23;20415;-66
2021/03/17 10:50:00;;;;;;;0.00;0.00;;;5.70;99.90;;;;;;6154267;23;20383;-66
2021/03/17 10:52:34;;;;;;;0.00;0.00;;;6.10;99.90;;;;;;6154391;23;20378;-66
2021/03/17 10:55:16;;;;;;;0.00;0.00;;;6.60;99.90;;;;;;6154260;23;20435;-66
2021/03/17 10:57:43;;;;;;;0.00;0.00;;;6.80;99.90;;;;;;6155002;23;20383;-66
2021/03/17 11:00:19;;;;;;;0.00;0.00;;;7.00;99.90;;;;;;6154460;23;20383;-67
2021/03/17 11:02:46;;;;;;;0.00;0.00;;;6.90;99.90;;;;;;6154231;23;20405;-67
2021/03/17 11:05:31;;;;;;;0.00;0.00;;;6.90;99.90;;;;;;6154127;23;20383;-67
2021/03/17 11:08:06;;;;;;;0.00;0.00;;;6.70;99.90;;;;;;6153146;23;20726;-67
2021/03/17 11:11:04;;;;;;;0.00;0.00;;;6.60;99.90;;;;;;6153906;23;20388;-67
2021/03/17 11:13:42;;;;;;;0.00;0.00;;;6.40;99.90;;;;;;6154359;23;20398;-67
2021/03/17 11:16:14;;;;;;;0.00;0.00;;;6.50;99.90;;;;;;6154023;23;20381;-67
2021/03/17 11:18:51;;;;;;;0.00;0.00;;;6.20;99.90;;;;;;6154903;23;20384;-66
2021/03/17 11:21:24;;;;;;;0.00;0.00;;;6.20;99.90;;;;;;6154057;23;20395;-67
2021/03/17 11:23:52;;;;;;;0.00;0.00;;;6.10;99.90;;;;;;6153925;23;20371;-67
2021/03/17 11:26:22;;;;;;;0.00;0.00;;;6.10;99.90;;;;;;6153501;23;20876;-65
2021/03/17 11:28:49;;;;;;;0.00;0.00;;;6.00;99.90;;;;;;6154409;23;20380;-66
2021/03/17 11:31:25;;;;;;;0.00;0.00;;;6.00;99.90;;;;;;6153444;23;20454;-65
2021/03/17 11:33:51;;;;;;;0.00;0.00;;;6.10;99.90;;;;;;6154132;23;20443;-66
2021/03/17 11:36:17;;;;;;;0.00;0.00;;;6.10;99.90;;;;;;6153818;23;20391;-66
2021/03/17 11:38:44;;;;;;;0.00;0.00;;;6.10;99.90;;;;;;6154110;23;20379;-66
2021/03/17 11:41:12;;;;;;;0.00;0.00;;;6.10;99.90;;;;;;6153218;23;20730;-65
2021/03/17 11:43:38;;;;;;;0.00;0.00;;;6.10;99.90;;;;;;6154071;23;20385;-65
2021/03/17 11:46:05;;;;;;;0.00;0.00;;;5.80;99.90;;;;;;6153975;23;20438;-65
2021/03/17 11:48:31;;;;;;;0.00;0.00;;;5.70;99.90;;;;;;6154080;23;20375;-66
2021/03/17 11:51:01;;;;;;;0.00;0.00;;;5.70;99.90;;;;;;6153911;23;20419;-65
2021/03/17 11:53:27;;;;;;;0.00;0.00;;;5.90;99.90;;;;;;6153718;23;20394;-66
2021/03/17 11:55:54;;;;;;;0.00;0.00;;;5.80;99.90;;;;;;6153773;23;20714;-66
2021/03/17 11:58:21;;;;;;;0.00;0.00;;;6.10;99.90;;;;;;6153698;23;20399;-66
2021/03/17 12:00:47;;;;;;;0.00;0.00;;;6.30;99.90;;;;;;6153614;23;20375;-66
2021/03/17 12:03:14;;;;;;;0.00;0.00;;;6.10;99.90;;;;;;6153283;23;20449;-66
2021/03/17 12:05:42;;;;;;;0.00;0.00;;;6.20;99.90;;;;;;6154044;23;20378;-66
2021/03/17 12:08:08;;;;;;;0.00;0.00;;;6.30;99.90;;;;;;6153734;23;20379;-67
2021/03/17 12:10:35;;;;;;;0.00;0.00;;;6.40;99.90;;;;;;6153706;23;20687;-66
2021/03/17 12:13:01;;;;;;;0.00;0.00;;;6.60;99.90;;;;;;6153425;23;20422;-67
2021/03/17 12:15:29;;;;;;;0.00;0.00;;;6.70;99.90;;;;;;6153858;23;20394;-66
2021/03/17 12:17:55;;;;;;;0.00;0.00;;;6.80;99.90;;;;;;6153426;23;20442;-66
2021/03/17 12:20:24;;;;;;;0.00;0.00;;;6.90;99.90;;;;;;6154034;23;20374;-66
2021/03/17 12:22:50;;;;;;;0.00;0.00;;;6.90;99.90;;;;;;6153701;23;20387;-66
2021/03/17 12:25:17;;;;;;;0.00;0.00;;;7.00;99.90;;;;;;6153446;23;20381;-67
2021/03/17 12:27:43;;;;;;;0.00;0.00;;;7.00;99.90;;;;;;6153629;23;20866;-65
2021/03/17 12:30:12;;;;;;;0.00;0.00;;;6.80;99.90;;;;;;6153366;23;20668;-66
2021/03/17 12:32:40;;;;;;;0.00;0.00;;;6.60;99.90;;;;;;6151596;23;20410;-66
2021/03/17 12:35:08;;;;;;;0.00;0.00;;;6.70;99.90;;;;;;6150991;23;20855;-66
2021/03/17 12:37:34;;;;;;;0.00;0.00;;;6.60;99.90;;;;;;6152959;23;20710;-66
2021/03/17 12:40:00;;;;;;;0.00;0.00;;;6.90;99.90;;;;;;6153127;23;20388;-66
2021/03/17 12:42:27;;;;;;;0.00;0.00;;;7.20;99.90;;;;;;6153247;23;20375;-66
2021/03/17 12:44:53;;;;;;;0.00;0.00;;;7.40;99.90;;;;;;6152886;23;20382;-67
2021/03/17 12:47:19;;;;;;;0.00;0.00;;;7.40;99.90;;;;;;6151052;23;20402;-67
2021/03/17 12:49:46;;;;;;;0.00;0.00;;;7.20;99.90;;;;;;6151809;23;20386;-67
2021/03/17 12:52:13;;;;;;;0.00;0.00;;;7.10;99.90;;;;;;6151605;23;21084;-67
2021/03/17 12:54:39;;;;;;;0.00;0.00;;;7.10;99.90;;;;;;6151796;23;20393;-66
2021/03/17 12:57:06;;;;;;;0.00;0.00;;;7.10;99.90;;;;;;6152731;23;20862;-67
2021/03/17 12:59:32;;;;;;;0.00;0.00;;;7.00;99.90;;;;;;6153401;23;20382;-66
2021/03/17 13:01:58;;;;;;;0.00;0.00;;;6.80;99.90;;;;;;6153159;23;20379;-66
2021/03/17 13:04:25;;;;;;;0.00;0.00;;;7.00;99.90;;;;;;6152221;23;20397;-66
2021/03/17 13:06:53;;;;;;;0.00;0.00;;;6.80;99.90;;;;;;6151921;23;20379;-66
2021/03/17 13:09:19;;;;;;;0.00;0.00;;;6.90;99.90;;;;;;6153015;23;20392;-69
2021/03/17 13:11:45;;;;;;;0.00;0.00;;;6.90;99.90;;;;;;6147619;23;20389;-66
2021/03/17 13:14:12;;;;;;;0.00;0.00;;;7.00;99.90;;;;;;6152193;23;20493;-67